Time;durP1;ratioP1;P1;durP2;ratioP2;P2;SDS_P1;SDS_P2;PMS_P1;PMS_P2;Temp;Humidity;BMP_temperature;BMP_pressure;BME280_temperature;BME280_humidity;BME280_pressure;Samples;Min_cycle;Max_cycle;Signal;HPM_P1;HPM_P2
2022/08/15 00:01:36;;;;;;;9.68;7.68;;;23.90;88.50;;;;;;4955868;29;20055;-77
2022/08/15 00:04:04;;;;;;;11.50;6.82;;;23.90;88.90;;;;;;4955897;29;20055;-77
2022/08/15 00:06:40;;;;;;;10.02;7.43;;;23.90;89.00;;;;;;4922750;29;20105;-77
2022/08/15 00:09:18;;;;;;;9.93;7.40;;;23.90;89.30;;;;;;4955929;29;20114;-77
2022/08/15 00:11:49;;;;;;;8.82;7.18;;;23.90;89.50;;;;;;4938877;29;20050;-77
2022/08/15 00:14:21;;;;;;;10.65;7.18;;;24.50;90.00;;;;;;4955919;29;20066;-77
2022/08/15 00:16:47;;;;;;;11.48;7.32;;;23.80;90.00;;;;;;4955813;29;20051;-77
2022/08/15 00:19:16;;;;;;;8.90;7.03;;;23.80;90.10;;;;;;4938898;29;20055;-77
2022/08/15 00:21:46;;;;;;;9.98;7.65;;;23.80;90.30;;;;;;4955757;29;20459;-77
2022/08/15 00:24:15;;;;;;;8.85;7.30;;;23.80;90.40;;;;;;4938426;29;20407;-77
2022/08/15 00:26:48;;;;;;;8.30;6.97;;;25.90;91.20;;;;;;4938462;29;20053;-77
2022/08/15 00:29:15;;;;;;;8.38;6.95;;;21.00;89.90;;;;;;4938478;29;20040;-77
2022/08/15 00:31:41;;;;;;;8.45;7.20;;;23.70;90.80;;;;;;4938287;29;20059;-77
2022/08/15 00:34:07;;;;;;;10.13;7.05;;;23.70;91.00;;;;;;4955121;28;20036;-77
2022/08/15 00:36:34;;;;;;;8.10;7.00;;;23.70;91.50;;;;;;4955032;29;20468;-77
2022/08/15 00:39:01;;;;;;;9.75;7.50;;;23.70;91.40;;;;;;4938105;29;20043;-78
2022/08/15 00:41:40;;;;;;;9.15;7.07;;;23.70;91.90;;;;;;4954130;29;20488;-79
2022/08/15 00:44:18;;;;;;;8.88;7.20;;;23.60;92.10;;;;;;4922188;29;20093;-77
2022/08/15 00:46:52;;;;;;;10.93;7.28;;;23.60;92.30;;;;;;4938014;29;20043;-78
2022/08/15 00:49:19;;;;;;;11.30;7.20;;;23.50;92.50;;;;;;4937953;29;20399;-76
2022/08/15 00:52:07;;;;;;;13.95;7.53;;;24.30;93.00;;;;;;4955036;29;20054;-76
2022/08/15 00:54:41;;;;;;;9.93;7.18;;;23.50;93.20;;;;;;4955364;29;20102;-76
2022/08/15 00:57:11;;;;;;;10.13;7.50;;;23.40;93.60;;;;;;4937784;29;20043;-77
2022/08/15 01:02:37;;;;;;;12.43;7.53;;;23.20;94.30;;;;;;4932608;29;20051;-67
2022/08/15 01:05:08;;;;;;;10.88;7.57;;;23.20;94.50;;;;;;4931716;29;20047;-66
2022/08/15 01:07:35;;;;;;;11.27;7.75;;;23.20;96.70;;;;;;4917675;29;20207;-65
2022/08/15 01:10:01;;;;;;;8.70;7.70;;;23.10;94.70;;;;;;4920029;29;20502;-65
2022/08/15 01:12:27;;;;;;;9.68;7.80;;;23.20;96.50;;;;;;4936896;29;20032;-65
2022/08/15 01:14:58;;;;;;;10.27;7.32;;;23.10;94.50;;;;;;4936811;29;20047;-66
2022/08/15 01:17:27;;;;;;;10.25;6.97;;;23.20;94.50;;;;;;4935430;29;20052;-66
2022/08/15 01:20:01;;;;;;;11.23;7.22;;;23.10;96.80;;;;;;4937049;29;20040;-66
2022/08/15 01:22:52;;;;;;;10.95;7.18;;;23.20;94.50;;;;;;4935892;29;20079;-65
2022/08/15 01:25:25;;;;;;;9.45;6.60;;;23.10;96.60;;;;;;4936743;29;20138;-65
2022/08/15 01:27:59;;;;;;;9.35;6.70;;;23.20;94.40;;;;;;4936573;29;20044;-65
2022/08/15 01:30:47;;;;;;;8.30;6.90;;;23.80;95.00;;;;;;4936619;29;20548;-67
2022/08/15 01:33:14;;;;;;;10.43;6.65;;;23.30;94.00;;;;;;4913382;29;20460;-67
2022/08/15 01:35:41;;;;;;;8.95;6.78;;;23.30;93.80;;;;;;4925156;29;20518;-67
2022/08/15 01:38:31;;;;;;;9.88;6.85;;;23.30;93.60;;;;;;4917469;29;20036;-67
2022/08/15 01:41:33;;;;;;;10.13;7.13;;;23.30;95.80;;;;;;4917582;29;20040;-67
2022/08/15 01:44:17;;;;;;;8.07;6.90;;;23.30;96.00;;;;;;4917526;29;20128;-68
2022/08/15 01:46:57;;;;;;;9.23;6.80;;;23.40;93.60;;;;;;4916726;29;20047;-69
2022/08/15 01:49:35;;;;;;;8.23;6.10;;;23.40;93.60;;;;;;4917322;29;20039;-68
2022/08/15 01:52:03;;;;;;;8.80;6.53;;;23.40;93.50;;;;;;4900370;29;20044;-68
2022/08/15 01:54:36;;;;;;;9.38;6.55;;;23.40;93.60;;;;;;4917827;29;20052;-69
2022/08/15 01:57:04;;;;;;;7.13;6.43;;;23.30;95.90;;;;;;4917152;29;20055;-68
2022/08/15 01:59:30;;;;;;;7.97;6.70;;;23.40;93.70;;;;;;4917191;29;20052;-68
2022/08/15 02:02:02;;;;;;;10.40;6.65;;;23.40;93.90;;;;;;4933137;29;20062;-68
2022/08/15 02:04:32;;;;;;;9.15;6.85;;;23.40;94.00;;;;;;4934730;29;20044;-67
2022/08/15 02:07:01;;;;;;;9.50;6.78;;;23.30;94.10;;;;;;4936331;29;20040;-68
2022/08/15 02:09:28;;;;;;;10.05;6.90;;;23.10;96.90;;;;;;4944610;29;20042;-67
2022/08/15 02:11:55;;;;;;;10.57;6.68;;;23.20;94.40;;;;;;4955323;29;20086;-68
2022/08/15 02:14:21;;;;;;;8.35;6.70;;;23.20;94.70;;;;;;4955291;29;20126;-68
2022/08/15 02:16:48;;;;;;;9.30;6.57;;;23.90;96.90;;;;;;4955223;29;20130;-67
2022/08/15 02:19:15;;;;;;;7.00;6.20;;;23.10;95.00;;;;;;4955024;29;20087;-69
2022/08/15 02:21:44;;;;;;;7.93;6.38;;;23.10;95.30;;;;;;4954884;29;20079;-67
2022/08/15 02:24:13;;;;;;;8.75;6.55;;;22.90;97.70;;;;;;4955167;29;20094;-68
2022/08/15 02:26:39;;;;;;;9.70;6.68;;;23.00;96.00;;;;;;4954983;29;20047;-67
2022/08/15 02:29:06;;;;;;;8.75;5.70;;;23.00;96.30;;;;;;4955025;29;20086;-68
2022/08/15 02:31:32;;;;;;;10.40;6.47;;;22.90;96.50;;;;;;4953962;29;20043;-67
2022/08/15 02:34:00;;;;;;;9.07;6.32;;;22.80;96.80;;;;;;4955128;29;20043;-67
2022/08/15 02:36:29;;;;;;;8.90;6.85;;;22.80;97.10;;;;;;4937712;29;20083;-67
2022/08/15 02:38:58;;;;;;;9.30;6.80;;;22.70;99.90;;;;;;4955012;29;20136;-67
2022/08/15 02:41:34;;;;;;;9.35;6.57;;;22.70;98.20;;;;;;4954841;29;20495;-67
2022/08/15 02:44:01;;;;;;;9.88;6.63;;;22.50;99.90;;;;;;4955007;29;20486;-67
2022/08/15 02:46:29;;;;;;;8.30;6.35;;;22.50;98.80;;;;;;4954740;29;20043;-67
2022/08/15 02:48:58;;;;;;;9.05;6.90;;;22.40;99.30;;;;;;4954725;29;20078;-67
2022/08/15 02:51:25;;;;;;;10.10;6.70;;;22.30;99.70;;;;;;4955001;29;20046;-67
2022/08/15 02:53:53;;;;;;;7.30;6.60;;;22.30;99.90;;;;;;4955022;29;20058;-67
2022/08/15 02:56:22;;;;;;;8.70;6.50;;;22.20;99.90;;;;;;4955098;29;20039;-67
2022/08/15 02:58:49;;;;;;;8.02;6.90;;;22.20;99.90;;;;;;4956997;28;20050;-68
2022/08/15 03:01:16;;;;;;;7.50;6.50;;;22.10;99.90;;;;;;4947274;29;20052;-67
2022/08/15 03:03:46;;;;;;;10.75;6.65;;;21.90;99.90;;;;;;4939163;29;20211;-67
2022/08/15 03:06:14;;;;;;;10.57;6.78;;;22.00;99.90;;;;;;4938116;29;20036;-67
2022/08/15 03:08:41;;;;;;;8.32;6.70;;;21.90;99.90;;;;;;4939222;29;20130;-67
2022/08/15 03:11:08;;;;;;;8.15;7.03;;;21.90;99.90;;;;;;4939303;29;20087;-67
2022/08/15 03:13:36;;;;;;;8.88;6.80;;;21.80;99.90;;;;;;4939160;29;20048;-67
2022/08/15 03:16:03;;;;;;;8.55;7.00;;;21.70;99.90;;;;;;4939115;29;20475;-67
2022/08/15 03:18:32;;;;;;;7.40;6.68;;;21.50;99.90;;;;;;4939236;29;20047;-66
2022/08/15 03:21:04;;;;;;;9.73;6.65;;;21.60;99.90;;;;;;4938868;29;20477;-67
2022/08/15 03:23:32;;;;;;;8.65;6.45;;;21.60;99.90;;;;;;4939102;29;20069;-67
2022/08/15 03:25:59;;;;;;;7.90;6.38;;;21.60;99.90;;;;;;4939104;29;20079;-68
2022/08/15 03:28:37;;;;;;;8.25;7.07;;;21.50;99.90;;;;;;4937605;29;20051;-67
2022/08/15 03:31:05;;;;;;;10.63;6.75;;;21.40;99.90;;;;;;4938994;29;20044;-67
2022/08/15 03:33:33;;;;;;;10.55;6.95;;;21.40;99.90;;;;;;4938721;29;20488;-67
2022/08/15 03:36:00;;;;;;;11.52;7.18;;;21.30;99.90;;;;;;4938911;29;20118;-67
2022/08/15 03:38:26;;;;;;;11.82;7.43;;;21.30;99.90;;;;;;4938748;29;20047;-67
2022/08/15 03:40:53;;;;;;;10.43;7.20;;;20.40;99.90;;;;;;4939124;29;20055;-67
2022/08/15 03:43:22;;;;;;;10.73;7.43;;;21.10;99.90;;;;;;4938659;29;20444;-67
2022/08/15 03:45:54;;;;;;;10.57;7.18;;;21.10;99.90;;;;;;4938705;29;20047;-67
2022/08/15 03:48:22;;;;;;;10.68;7.65;;;20.70;99.90;;;;;;4938638;29;20086;-67
2022/08/15 03:50:51;;;;;;;9.85;7.60;;;21.00;99.90;;;;;;4938564;29;20044;-67
2022/08/15 03:53:19;;;;;;;11.63;8.20;;;21.00;99.90;;;;;;4938871;29;20048;-67
2022/08/15 03:55:45;;;;;;;9.63;7.63;;;21.00;99.90;;;;;;4938225;29;20039;-67
2022/08/15 03:58:11;;;;;;;9.20;8.10;;;20.90;99.90;;;;;;4938297;29;20098;-67
2022/08/15 04:00:44;;;;;;;11.20;8.52;;;21.00;99.90;;;;;;4938232;29;20103;-67
2022/08/15 04:03:13;;;;;;;9.23;7.72;;;21.10;99.90;;;;;;4938261;29;20068;-67
2022/08/15 04:05:41;;;;;;;9.80;8.32;;;21.10;99.90;;;;;;4938183;29;20043;-68
2022/08/15 04:08:10;;;;;;;9.57;8.43;;;21.10;99.90;;;;;;4921010;29;20166;-67
2022/08/15 04:10:37;;;;;;;13.27;7.82;;;21.10;99.90;;;;;;4935802;29;20131;-67
2022/08/15 04:13:06;;;;;;;13.10;8.38;;;21.10;99.90;;;;;;4938210;29;20071;-67
2022/08/15 04:15:33;;;;;;;11.75;9.25;;;20.80;99.90;;;;;;4938133;29;20568;-67
2022/08/15 04:17:59;;;;;;;13.80;9.02;;;21.10;99.90;;;;;;4937980;29;20043;-67
2022/08/15 04:20:24;;;;;;;12.77;9.07;;;21.20;99.90;;;;;;4937714;29;20056;-67
2022/08/15 04:22:51;;;;;;;13.73;9.40;;;21.20;99.90;;;;;;4937747;29;20039;-67
2022/08/15 04:25:26;;;;;;;17.05;9.25;;;21.20;99.90;;;;;;4936631;29;20114;-67
2022/08/15 04:27:54;;;;;;;10.55;9.23;;;21.30;99.90;;;;;;4937673;29;20099;-67
2022/08/15 04:30:28;;;;;;;10.10;9.00;;;21.30;99.90;;;;;;4937739;29;20129;-67
2022/08/15 04:33:04;;;;;;;12.25;9.15;;;21.40;99.90;;;;;;4937810;29;20050;-67
2022/08/15 04:35:30;;;;;;;11.82;8.98;;;21.30;99.90;;;;;;4937892;29;20095;-67
2022/08/15 04:37:59;;;;;;;14.98;9.35;;;21.30;99.90;;;;;;4936574;29;20051;-67
2022/08/15 04:40:24;;;;;;;12.10;9.00;;;21.80;99.90;;;;;;4937566;29;20095;-67
2022/08/15 04:42:58;;;;;;;13.20;9.10;;;21.40;99.90;;;;;;4937575;29;20407;-67
2022/08/15 04:45:30;;;;;;;11.88;9.70;;;21.40;99.90;;;;;;4937480;29;20518;-67
2022/08/15 04:47:56;;;;;;;16.27;9.25;;;21.40;99.90;;;;;;4937465;29;20122;-67
2022/08/15 04:50:22;;;;;;;12.90;9.30;;;20.90;99.90;;;;;;4937339;29;20430;-67
2022/08/15 04:52:55;;;;;;;12.85;9.43;;;21.50;99.90;;;;;;4937419;29;20168;-67
2022/08/15 04:55:24;;;;;;;13.30;9.18;;;21.60;99.90;;;;;;4937267;29;20040;-67
2022/08/15 04:57:51;;;;;;;11.63;9.25;;;21.60;99.90;;;;;;4920336;29;20146;-67
2022/08/15 05:00:20;;;;;;;13.88;9.63;;;21.70;99.90;;;;;;4936877;29;20055;-67
2022/08/15 05:03:11;;;;;;;14.10;9.55;;;21.60;99.90;;;;;;4937220;29;20099;-67
2022/08/15 05:05:41;;;;;;;11.38;9.48;;;21.70;99.90;;;;;;4921108;29;20044;-67
2022/08/15 05:08:08;;;;;;;12.60;9.75;;;21.80;99.90;;;;;;4937188;29;20399;-67
2022/08/15 05:10:34;;;;;;;12.55;9.43;;;21.70;99.90;;;;;;4936841;29;20044;-67
2022/08/15 05:13:16;;;;;;;14.82;10.05;;;21.80;99.90;;;;;;4937077;29;20396;-67
2022/08/15 05:15:43;;;;;;;12.07;9.27;;;20.70;99.90;;;;;;4936925;29;20043;-67
2022/08/15 05:18:09;;;;;;;11.75;9.60;;;21.80;99.90;;;;;;4936957;29;20150;-67
2022/08/15 05:20:35;;;;;;;12.85;9.70;;;21.90;99.90;;;;;;4919477;29;20476;-67
2022/08/15 05:23:05;;;;;;;10.32;9.05;;;22.00;99.90;;;;;;4936562;29;20102;-67
2022/08/15 05:25:33;;;;;;;14.18;9.20;;;22.00;99.90;;;;;;4936605;29;20039;-67
2022/08/15 05:28:00;;;;;;;12.38;9.07;;;22.10;99.90;;;;;;4936783;29;20043;-67
2022/08/15 05:30:26;;;;;;;14.75;9.40;;;22.20;99.90;;;;;;4936762;29;20078;-67
2022/08/15 05:33:07;;;;;;;13.90;9.15;;;22.30;99.90;;;;;;4936525;29;20128;-67
2022/08/15 05:35:34;;;;;;;15.88;9.05;;;22.40;99.90;;;;;;4936504;29;20099;-67
2022/08/15 05:38:04;;;;;;;10.10;9.02;;;22.40;99.90;;;;;;4936719;29;20047;-68
2022/08/15 05:40:42;;;;;;;13.68;9.38;;;22.70;99.90;;;;;;4936539;29;20044;-67
2022/08/15 05:43:15;;;;;;;11.32;9.23;;;21.70;99.90;;;;;;4936602;29;20090;-67
2022/08/15 05:46:23;;;;;;;14.02;8.98;;;22.50;99.90;;;;;;4936486;29;20395;-68
2022/08/15 05:49:00;;;;;;;10.93;9.13;;;22.70;99.90;;;;;;4936083;29;20103;-68
2022/08/15 05:51:43;;;;;;;13.85;9.68;;;22.70;99.90;;;;;;4936344;29;20079;-67
2022/08/15 05:54:33;;;;;;;12.27;10.02;;;22.80;99.90;;;;;;4936303;29;20123;-67
2022/08/15 05:57:17;;;;;;;11.98;9.23;;;22.80;99.90;;;;;;4936187;29;20492;-67
2022/08/15 05:59:51;;;;;;;13.68;9.18;;;22.90;99.90;;;;;;4936255;29;20043;-67
2022/08/15 06:02:25;;;;;;;10.93;9.50;;;22.90;99.90;;;;;;4938217;29;20505;-67
2022/08/15 06:05:05;;;;;;;16.08;9.70;;;23.00;99.90;;;;;;4938138;29;20130;-67
2022/08/15 06:07:32;;;;;;;22.13;9.70;;;23.00;99.90;;;;;;4938816;29;20070;-67
2022/08/15 06:10:11;;;;;;;15.00;9.20;;;23.00;99.90;;;;;;4918919;29;20127;-67
2022/08/15 06:12:44;;;;;;;21.55;9.48;;;23.00;99.90;;;;;;4936138;29;20082;-67
2022/08/15 06:15:22;;;;;;;36.30;10.90;;;23.00;99.90;;;;;;4936017;29;20075;-67
2022/08/15 06:17:56;;;;;;;17.58;9.93;;;23.10;99.90;;;;;;4936117;29;20055;-67
2022/08/15 06:20:31;;;;;;;15.82;9.27;;;23.10;99.90;;;;;;4935934;29;20480;-67
2022/08/15 06:23:11;;;;;;;16.17;9.23;;;23.10;99.90;;;;;;4935933;29;20103;-67
2022/08/15 06:26:06;;;;;;;14.93;9.13;;;23.10;99.90;;;;;;4904175;29;20052;-67
2022/08/15 06:28:48;;;;;;;16.20;8.90;;;24.00;99.90;;;;;;4936063;29;20124;-67
2022/08/15 06:31:31;;;;;;;10.00;8.63;;;23.30;99.90;;;;;;4935889;29;20103;-67
2022/08/15 06:34:21;;;;;;;21.73;9.45;;;23.30;99.90;;;;;;4938475;29;20090;-67
2022/08/15 06:36:46;;;;;;;14.32;9.02;;;23.40;99.90;;;;;;4939701;29;20399;-67
2022/08/15 06:39:39;;;;;;;10.50;8.70;;;23.40;99.90;;;;;;4939833;29;20040;-67
2022/08/15 06:42:13;;;;;;;17.00;9.43;;;23.40;99.90;;;;;;4939732;29;20055;-68
2022/08/15 06:44:39;;;;;;;14.32;9.10;;;23.50;99.90;;;;;;4939846;29;20047;-67
2022/08/15 06:47:07;;;;;;;16.48;9.23;;;23.50;99.90;;;;;;4937513;29;20060;-67
2022/08/15 06:49:44;;;;;;;10.75;9.15;;;23.60;99.90;;;;;;4937290;29;20106;-67
2022/08/15 06:52:12;;;;;;;16.30;8.93;;;23.60;99.90;;;;;;4938444;29;20188;-68
2022/08/15 06:54:40;;;;;;;14.88;9.10;;;23.70;99.90;;;;;;4937532;29;20047;-68
2022/08/15 06:57:20;;;;;;;16.02;9.18;;;23.80;99.90;;;;;;4938325;29;20063;-67
2022/08/15 07:00:07;;;;;;;12.77;9.00;;;23.90;99.90;;;;;;4937976;29;20051;-68
2022/08/15 07:03:03;;;;;;;13.50;9.10;;;24.00;99.80;;;;;;4937956;29;20075;-67
2022/08/15 07:05:55;;;;;;;14.93;9.25;;;24.30;99.30;;;;;;4938030;29;20094;-67
2022/08/15 07:08:49;;;;;;;13.32;8.82;;;24.60;98.30;;;;;;4938542;29;20044;-67
2022/08/15 07:11:17;;;;;;;10.35;9.27;;;24.80;97.90;;;;;;4938789;29;20039;-67
2022/08/15 07:14:39;;;;;;;13.07;8.68;;;25.00;97.20;;;;;;4937664;29;20054;-68
2022/08/15 07:17:37;;;;;;;10.90;9.15;;;25.10;97.10;;;;;;4879119;29;20061;-67
2022/08/15 07:20:05;;;;;;;12.57;8.93;;;25.80;99.60;;;;;;4879138;29;20053;-67
2022/08/15 07:22:33;;;;;;;9.77;8.43;;;25.70;96.00;;;;;;4879117;29;20158;-67
2022/08/15 07:24:59;;;;;;;11.50;9.23;;;26.20;94.90;;;;;;4879151;29;20456;-67
2022/08/15 07:27:32;;;;;;;14.07;9.30;;;26.60;93.70;;;;;;4879333;29;20127;-67
2022/08/15 07:30:20;;;;;;;13.98;8.77;;;26.80;92.70;;;;;;4898628;29;20116;-64
2022/08/15 07:32:57;;;;;;;21.20;9.95;;;26.90;92.40;;;;;;4883027;29;20444;-66
2022/08/15 07:35:35;;;;;;;11.38;9.32;;;26.90;91.90;;;;;;4883359;29;20055;-64
2022/08/15 07:38:04;;;;;;;10.98;8.70;;;26.80;91.80;;;;;;4881615;29;20044;-61
2022/08/15 07:40:40;;;;;;;9.63;8.68;;;26.70;91.80;;;;;;4878963;29;20053;-62
2022/08/15 07:43:32;;;;;;;13.30;8.18;;;26.70;91.60;;;;;;4879736;29;20494;-61
2022/08/15 07:46:12;;;;;;;11.90;8.27;;;26.60;91.50;;;;;;4879816;29;20049;-62
2022/08/15 07:48:39;;;;;;;11.35;7.68;;;26.50;91.60;;;;;;4879981;29;20101;-60
2022/08/15 07:51:25;;;;;;;9.70;7.90;;;26.50;91.50;;;;;;4879579;29;20494;-63
2022/08/15 07:54:04;;;;;;;11.57;7.80;;;26.60;91.40;;;;;;4938278;29;20044;-61
2022/08/15 07:56:33;;;;;;;12.25;7.85;;;26.60;91.10;;;;;;4938132;29;20567;-64
2022/08/15 07:59:30;;;;;;;12.27;7.70;;;26.60;91.20;;;;;;4937723;29;20039;-63
2022/08/15 08:02:28;;;;;;;11.77;7.63;;;26.60;91.00;;;;;;4925881;29;20408;-60
2022/08/15 08:04:56;;;;;;;9.95;7.35;;;26.70;90.90;;;;;;4935641;29;20122;-63
2022/08/15 08:07:40;;;;;;;12.38;7.50;;;26.90;90.90;;;;;;4938375;29;20050;-64
2022/08/15 08:10:12;;;;;;;9.73;6.82;;;27.10;90.40;;;;;;4938233;29;20119;-62
2022/08/15 08:12:52;;;;;;;12.52;7.32;;;27.40;90.30;;;;;;4938268;29;20071;-62
2022/08/15 08:15:40;;;;;;;12.88;7.20;;;27.60;88.80;;;;;;4938324;29;20448;-62
2022/08/15 08:18:14;;;;;;;8.63;7.10;;;27.80;90.80;;;;;;4920951;29;20051;-62
2022/08/15 08:20:58;;;;;;;9.13;7.40;;;27.80;86.90;;;;;;4937983;29;20381;-62
2022/08/15 08:23:33;;;;;;;11.30;7.32;;;27.80;86.20;;;;;;4938135;29;20404;-60
2022/08/15 08:26:29;;;;;;;12.90;7.47;;;26.90;89.40;;;;;;4937953;29;20400;-60
2022/08/15 08:28:55;;;;;;;10.13;7.80;;;28.10;85.00;;;;;;4938018;29;20374;-62
2022/08/15 08:31:31;;;;;;;10.63;7.70;;;28.30;84.50;;;;;;4937876;29;20048;-62
2022/08/15 08:34:05;;;;;;;11.05;8.50;;;28.50;83.40;;;;;;4920657;29;20491;-63
2022/08/15 08:37:02;;;;;;;10.77;7.85;;;28.70;82.20;;;;;;4937725;29;20051;-63
2022/08/15 08:39:31;;;;;;;10.70;8.00;;;28.70;81.80;;;;;;4937626;29;20055;-63
2022/08/15 08:42:15;;;;;;;12.80;7.90;;;28.80;86.00;;;;;;4937600;29;20043;-66
2022/08/15 08:44:52;;;;;;;8.63;7.70;;;28.80;81.20;;;;;;4937384;29;20369;-62
2022/08/15 08:47:24;;;;;;;17.92;8.10;;;28.90;80.80;;;;;;4937252;29;20043;-63
2022/08/15 08:50:39;;;;;;;16.60;8.88;;;27.30;79.30;;;;;;4937624;29;20091;-61
2022/08/15 08:53:16;;;;;;;11.77;8.68;;;28.90;79.00;;;;;;4933977;29;20134;-61
2022/08/15 08:55:50;;;;;;;12.18;9.23;;;28.70;80.20;;;;;;4936454;29;20090;-63
2022/08/15 08:58:22;;;;;;;11.73;9.73;;;28.60;81.00;;;;;;4937342;29;20094;-60
2022/08/15 09:00:50;;;;;;;16.40;10.20;;;28.50;81.90;;;;;;4936943;29;20450;-60
2022/08/15 09:03:46;;;;;;;13.82;9.85;;;28.30;87.60;;;;;;4936915;29;20117;-60
2022/08/15 09:06:18;;;;;;;11.65;9.93;;;28.30;82.30;;;;;;4936934;29;20044;-61
2022/08/15 09:08:51;;;;;;;16.13;9.98;;;28.60;82.10;;;;;;4937127;29;20166;-60
2022/08/15 09:11:22;;;;;;;12.07;10.88;;;28.60;84.10;;;;;;4936917;29;20055;-60
2022/08/15 09:13:49;;;;;;;14.75;10.40;;;28.70;81.20;;;;;;4936852;29;20051;-61
2022/08/15 09:16:33;;;;;;;17.05;11.35;;;28.70;80.90;;;;;;4936749;29;20046;-61
2022/08/15 09:19:07;;;;;;;15.88;10.90;;;28.70;79.80;;;;;;4936729;29;20496;-61
2022/08/15 09:21:34;;;;;;;13.25;10.90;;;28.70;80.60;;;;;;4936723;29;20050;-61
2022/08/15 09:24:00;;;;;;;16.88;10.20;;;28.60;79.20;;;;;;4936660;29;20484;-60
2022/08/15 09:26:38;;;;;;;13.32;10.60;;;28.60;79.10;;;;;;4936596;29;20047;-60
2022/08/15 09:29:21;;;;;;;14.82;11.90;;;28.80;78.60;;;;;;4936595;29;20052;-60
2022/08/15 09:32:10;;;;;;;20.27;11.60;;;28.80;78.20;;;;;;4937091;29;20400;-60
2022/08/15 09:35:21;;;;;;;18.58;11.60;;;28.70;78.40;;;;;;4919567;29;20388;-61
2022/08/15 09:38:11;;;;;;;17.83;13.00;;;28.60;78.90;;;;;;4936454;29;20085;-60
2022/08/15 09:41:00;;;;;;;16.50;11.98;;;28.50;79.00;;;;;;4936330;29;20134;-60
2022/08/15 09:44:08;;;;;;;17.02;12.75;;;28.40;79.50;;;;;;4936284;29;20091;-61
2022/08/15 09:46:40;;;;;;;17.00;12.70;;;28.20;79.20;;;;;;4862361;29;20093;-62
2022/08/15 09:49:20;;;;;;;13.45;12.02;;;28.00;79.70;;;;;;4877830;29;20041;-61
2022/08/15 09:51:57;;;;;;;13.45;11.63;;;27.80;79.50;;;;;;4877588;29;20409;-61
2022/08/15 09:54:27;;;;;;;14.80;12.00;;;27.60;84.50;;;;;;4877803;29;20049;-60
2022/08/15 09:57:43;;;;;;;16.10;12.10;;;27.50;80.20;;;;;;4877510;29;20056;-60
2022/08/15 10:00:15;;;;;;;;;;;27.40;80.30;;;;;;4867424;29;20501;-61
2022/08/15 10:02:44;;;;;;;14.10;12.02;;;27.30;80.80;;;;;;4861854;29;20398;-61
2022/08/15 10:05:20;;;;;;;17.23;11.80;;;27.20;81.20;;;;;;4862036;29;20458;-61
2022/08/15 10:08:02;;;;;;;19.63;12.45;;;27.20;85.00;;;;;;4861111;29;20056;-61
2022/08/15 10:10:36;;;;;;;14.02;11.75;;;27.30;81.50;;;;;;4877505;29;20386;-61
2022/08/15 10:13:09;;;;;;;14.98;11.65;;;27.20;81.60;;;;;;4877391;29;20049;-61
2022/08/15 10:15:43;;;;;;;20.70;13.18;;;27.30;82.00;;;;;;4877427;29;20041;-61
2022/08/15 10:18:30;;;;;;;21.33;12.95;;;27.20;82.00;;;;;;4877419;29;20158;-61
2022/08/15 10:20:56;;;;;;;15.57;11.80;;;27.20;82.80;;;;;;4877053;29;20382;-61
2022/08/15 10:23:40;;;;;;;18.17;13.30;;;27.30;82.90;;;;;;4909860;29;20110;-61
2022/08/15 10:26:18;;;;;;;22.40;11.80;;;27.40;82.50;;;;;;4935853;29;20483;-61
2022/08/15 10:29:08;;;;;;;17.13;12.18;;;27.60;82.70;;;;;;4935886;29;20080;-61
2022/08/15 10:31:57;;;;;;;19.85;12.60;;;27.70;82.60;;;;;;4935655;29;20095;-61
2022/08/15 10:34:54;;;;;;;20.10;13.07;;;27.80;82.00;;;;;;4936081;29;20411;-61
2022/08/15 10:37:26;;;;;;;19.75;13.85;;;27.80;82.30;;;;;;4935790;29;20043;-62
2022/08/15 10:40:00;;;;;;;21.63;14.32;;;27.90;81.80;;;;;;4935883;29;20119;-61
2022/08/15 10:42:32;;;;;;;;;;;27.90;81.10;;;;;;4936140;29;20047;-61
2022/08/15 10:45:16;;;;;;;18.25;13.80;;;27.90;81.60;;;;;;4935858;29;20100;-62
2022/08/15 10:48:12;;;;;;;20.17;14.50;;;27.90;81.60;;;;;;4935605;29;20036;-62
2022/08/15 10:50:57;;;;;;;17.42;15.10;;;28.00;80.80;;;;;;4935519;29;20129;-62
2022/08/15 10:53:28;;;;;;;18.27;15.18;;;28.00;80.70;;;;;;4935628;29;20036;-61
2022/08/15 10:56:11;;;;;;;20.88;14.90;;;28.10;80.90;;;;;;4935637;29;20115;-62
2022/08/15 10:58:37;;;;;;;22.13;15.85;;;28.10;79.80;;;;;;4935400;29;20126;-61
2022/08/15 11:01:11;;;;;;;24.23;15.57;;;28.10;79.50;;;;;;4935343;29;20103;-62
2022/08/15 11:04:05;;;;;;;19.02;16.10;;;28.10;79.40;;;;;;4918556;29;20047;-62
2022/08/15 11:06:34;;;;;;;19.77;16.05;;;28.10;79.50;;;;;;4935785;29;20126;-62
2022/08/15 11:09:08;;;;;;;20.20;15.15;;;28.10;79.50;;;;;;4918545;29;20135;-61
2022/08/15 11:11:42;;;;;;;23.23;16.55;;;28.20;79.70;;;;;;4935614;29;20051;-62
2022/08/15 11:14:44;;;;;;;21.50;17.50;;;28.30;79.50;;;;;;4935457;29;20514;-63
2022/08/15 11:17:18;;;;;;;27.77;17.48;;;28.30;78.30;;;;;;4906130;29;20060;-59
2022/08/15 11:19:49;;;;;;;24.03;17.27;;;28.40;78.30;;;;;;4937644;29;20411;-60
2022/08/15 11:22:37;;;;;;;28.67;17.75;;;28.40;77.80;;;;;;4939089;29;20561;-61
2022/08/15 11:25:13;;;;;;;23.52;18.13;;;28.50;77.10;;;;;;4938872;29;20039;-64
2022/08/15 11:27:39;;;;;;;21.05;17.67;;;28.60;80.70;;;;;;4938744;29;20095;-64
2022/08/15 11:30:08;;;;;;;19.92;17.10;;;28.80;81.30;;;;;;4938997;29;20040;-67
2022/08/15 11:32:38;;;;;;;22.05;17.85;;;28.70;77.90;;;;;;4938738;29;20048;-64
2022/08/15 11:35:25;;;;;;;23.75;18.27;;;28.70;77.70;;;;;;4921803;29;20396;-64
2022/08/15 11:37:55;;;;;;;25.20;18.48;;;28.80;82.00;;;;;;4921571;29;20079;-64
2022/08/15 11:40:21;;;;;;;28.52;17.23;;;27.40;76.70;;;;;;4938956;29;20507;-63
2022/08/15 11:42:48;;;;;;;25.67;19.40;;;29.00;77.90;;;;;;4938837;29;20040;-61
2022/08/15 11:45:20;;;;;;;26.15;17.25;;;29.10;77.80;;;;;;4938653;29;20047;-63
2022/08/15 11:47:57;;;;;;;24.13;18.17;;;29.10;77.80;;;;;;4938508;29;20540;-62
2022/08/15 11:50:28;;;;;;;25.05;17.85;;;29.10;78.10;;;;;;4938432;29;20519;-64
2022/08/15 11:53:04;;;;;;;22.40;18.35;;;29.20;78.20;;;;;;4938328;29;20047;-64
2022/08/15 11:55:30;;;;;;;29.75;18.15;;;29.30;77.50;;;;;;4937634;29;20472;-64
2022/08/15 11:58:10;;;;;;;22.13;17.85;;;29.40;77.50;;;;;;4938604;29;20144;-65
2022/08/15 12:00:42;;;;;;;19.30;16.10;;;29.50;76.80;;;;;;4938242;29;20115;-63
2022/08/15 12:03:20;;;;;;;22.02;18.05;;;29.50;76.20;;;;;;4921351;29;20119;-63
2022/08/15 12:05:48;;;;;;;21.27;17.58;;;29.60;76.40;;;;;;4938437;29;20044;-61
2022/08/15 12:08:27;;;;;;;23.30;18.05;;;29.80;76.70;;;;;;4938299;29;20047;-62
2022/08/15 12:11:15;;;;;;;23.23;18.80;;;29.90;76.70;;;;;;4937716;29;20516;-63
2022/08/15 12:14:00;;;;;;;28.70;18.02;;;30.10;76.00;;;;;;4938276;29;20059;-60
2022/08/15 12:16:59;;;;;;;21.73;18.02;;;30.20;75.30;;;;;;4938298;29;20386;-62
2022/08/15 12:19:50;;;;;;;20.85;17.02;;;30.20;75.00;;;;;;4927120;29;20065;-63
2022/08/15 12:22:30;;;;;;;21.67;16.75;;;30.30;75.20;;;;;;4938078;29;20048;-63
2022/08/15 12:24:56;;;;;;;36.15;17.67;;;30.30;75.20;;;;;;4938164;29;20133;-63
2022/08/15 12:27:22;;;;;;;21.90;18.15;;;30.30;74.50;;;;;;4937891;29;20175;-62
2022/08/15 12:29:48;;;;;;;24.75;16.50;;;30.40;73.50;;;;;;4937453;29;20039;-63
2022/08/15 12:32:13;;;;;;;20.50;14.45;;;30.50;73.40;;;;;;4936880;29;20048;-62
2022/08/15 12:34:45;;;;;;;16.80;14.90;;;30.50;73.70;;;;;;4937369;29;20048;-62
2022/08/15 12:37:18;;;;;;;24.17;14.20;;;30.60;74.00;;;;;;4935866;29;20035;-62
2022/08/15 12:39:55;;;;;;;19.58;14.52;;;30.70;74.40;;;;;;4936221;29;20047;-62
2022/08/15 12:42:33;;;;;;;18.65;13.13;;;30.60;74.00;;;;;;4937412;29;20039;-62
2022/08/15 12:45:04;;;;;;;15.95;12.73;;;30.70;74.30;;;;;;4937779;29;20373;-62
2022/08/15 12:47:35;;;;;;;15.90;12.55;;;30.60;74.20;;;;;;4919174;29;20075;-64
2022/08/15 12:50:03;;;;;;;18.90;12.13;;;30.50;74.00;;;;;;4936752;29;20087;-65
2022/08/15 12:52:29;;;;;;;13.98;11.05;;;30.50;74.10;;;;;;4936464;29;20043;-66
2022/08/15 12:54:57;;;;;;;19.08;12.07;;;30.40;74.20;;;;;;4937049;29;20040;-65
2022/08/15 12:57:24;;;;;;;18.27;12.48;;;30.20;77.90;;;;;;4937714;29;20044;-65
2022/08/15 12:59:49;;;;;;;16.75;12.40;;;30.20;75.30;;;;;;4937229;29;20035;-66
2022/08/15 13:02:15;;;;;;;13.32;11.82;;;30.00;75.60;;;;;;4936759;29;20114;-67
2022/08/15 13:04:47;;;;;;;22.50;12.38;;;30.00;76.10;;;;;;4936878;29;20499;-66
2022/08/15 13:07:14;;;;;;;14.75;12.20;;;29.90;76.40;;;;;;4936325;29;20425;-64
2022/08/15 13:09:41;;;;;;;16.15;11.55;;;30.40;79.80;;;;;;4936699;29;20401;-66
2022/08/15 13:12:07;;;;;;;14.27;11.93;;;29.80;76.50;;;;;;4919870;29;20396;-63
2022/08/15 13:14:32;;;;;;;13.70;11.75;;;29.80;76.60;;;;;;4937064;29;20118;-66
2022/08/15 13:16:59;;;;;;;16.45;11.02;;;29.70;76.40;;;;;;4919914;29;20084;-62